Time;durP1;ratioP1;P1;durP2;ratioP2;P2;SDS_P1;SDS_P2;PMS_P1;PMS_P2;Temp;Humidity;BMP_temperature;BMP_pressure;BME280_temperature;BME280_humidity;BME280_pressure;Samples;Min_cycle;Max_cycle;Signal;HPM_P1;HPM_P2
2024/01/21 00:00:51;;;;;;;20.30;8.87;;;-2.10;99.90;;;;;;5261307;28;20211;-49
2024/01/21 00:03:21;;;;;;;15.67;8.57;;;-2.20;99.90;;;;;;5264882;28;21083;-48
2024/01/21 00:05:52;;;;;;;12.50;7.53;;;-2.20;99.90;;;;;;5258770;28;20181;-50
2024/01/21 00:08:22;;;;;;;21.87;10.37;;;-2.30;99.90;;;;;;5260822;28;20190;-48
2024/01/21 00:10:53;;;;;;;15.10;9.53;;;-2.40;99.90;;;;;;5256106;28;20255;-48
2024/01/21 00:13:24;;;;;;;22.87;8.30;;;-2.40;99.90;;;;;;5257894;28;20567;-48
2024/01/21 00:15:54;;;;;;;19.60;9.37;;;-2.40;99.90;;;;;;5257608;28;20420;-46
2024/01/21 00:18:25;;;;;;;18.57;9.40;;;-2.30;99.90;;;;;;5256675;28;20972;-51
2024/01/21 00:20:56;;;;;;;18.43;9.70;;;-2.40;99.90;;;;;;5266146;28;20254;-51
2024/01/21 00:23:26;;;;;;;21.20;9.80;;;-2.40;99.90;;;;;;5257587;28;20227;-50
2024/01/21 00:25:58;;;;;;;15.10;8.40;;;-2.50;99.90;;;;;;5252605;28;20203;-48
2024/01/21 00:28:29;;;;;;;19.03;8.80;;;-2.60;99.90;;;;;;5258025;28;20188;-48
2024/01/21 00:31:03;;;;;;;12.53;8.23;;;-2.60;99.90;;;;;;5259281;28;20456;-49
2024/01/21 00:33:33;;;;;;;18.60;9.33;;;-2.60;99.90;;;;;;5256274;28;20179;-46
2024/01/21 00:36:04;;;;;;;18.27;9.20;;;-2.70;99.90;;;;;;5257414;28;20462;-48
2024/01/21 00:38:35;;;;;;;24.70;9.23;;;-2.70;99.90;;;;;;5258412;28;20204;-49
2024/01/21 00:41:06;;;;;;;17.83;10.37;;;-2.80;99.90;;;;;;5261519;28;20232;-46
2024/01/21 00:43:36;;;;;;;37.40;14.83;;;-2.70;99.90;;;;;;5245770;28;20213;-48
2024/01/21 00:46:07;;;;;;;13.70;8.73;;;-2.40;99.90;;;;;;5261152;28;20591;-49
2024/01/21 00:48:39;;;;;;;20.60;10.20;;;-2.50;99.90;;;;;;5261497;28;20170;-47
2024/01/21 00:51:10;;;;;;;21.07;8.80;;;-2.40;99.90;;;;;;5265213;28;20461;-48
2024/01/21 00:53:40;;;;;;;20.83;9.10;;;-2.60;99.90;;;;;;5265215;28;20434;-49
2024/01/21 00:56:11;;;;;;;17.97;9.07;;;-2.80;99.90;;;;;;5265776;28;20189;-48
2024/01/21 00:58:42;;;;;;;11.30;8.70;;;-2.70;99.90;;;;;;5261588;28;20197;-50
2024/01/21 01:01:13;;;;;;;13.53;8.43;;;-2.60;99.90;;;;;;5262982;28;20206;-48
2024/01/21 01:03:44;;;;;;;13.80;8.03;;;-2.70;99.90;;;;;;5263018;28;20451;-51
2024/01/21 01:06:15;;;;;;;15.50;8.57;;;-2.80;99.90;;;;;;5266925;28;20192;-48
2024/01/21 01:08:45;;;;;;;16.17;8.93;;;-2.90;99.90;;;;;;5264721;28;20427;-49
2024/01/21 01:11:16;;;;;;;17.10;7.77;;;-2.70;99.90;;;;;;5266100;28;20227;-49
2024/01/21 01:13:47;;;;;;;16.53;9.20;;;-2.70;99.90;;;;;;5267519;28;20201;-47
2024/01/21 01:16:17;;;;;;;15.33;9.03;;;-2.60;99.90;;;;;;5269657;28;20434;-47
2024/01/21 01:18:49;;;;;;;13.87;8.50;;;-2.80;99.90;;;;;;5267782;28;20185;-48
2024/01/21 01:21:20;;;;;;;14.53;8.60;;;-2.70;99.90;;;;;;5268011;28;20208;-46
2024/01/21 01:23:50;;;;;;;16.50;8.87;;;-3.00;99.90;;;;;;5271314;28;20458;-50
2024/01/21 01:26:21;;;;;;;17.73;8.77;;;-3.10;99.90;;;;;;5266678;28;20173;-53
2024/01/21 01:28:51;;;;;;;15.60;8.40;;;-2.90;99.90;;;;;;5247973;28;20187;-51
2024/01/21 01:31:22;;;;;;;16.77;7.57;;;-3.10;99.90;;;;;;5266707;28;20657;-48
2024/01/21 01:33:53;;;;;;;13.97;8.90;;;-3.00;99.90;;;;;;5268459;28;20220;-49
2024/01/21 01:36:23;;;;;;;18.13;8.80;;;-3.00;99.90;;;;;;5265118;28;20184;-47
2024/01/21 01:38:54;;;;;;;13.33;8.43;;;-2.90;99.90;;;;;;5263257;28;20224;-47
2024/01/21 01:41:25;;;;;;;16.93;8.97;;;-3.00;99.90;;;;;;5262446;28;20244;-49
2024/01/21 01:43:55;;;;;;;14.60;8.40;;;-3.10;99.90;;;;;;5264452;28;20237;-48
2024/01/21 01:46:26;;;;;;;12.87;8.17;;;-2.90;99.90;;;;;;5266870;28;20184;-47
2024/01/21 01:48:58;;;;;;;15.83;8.40;;;-3.00;99.90;;;;;;5267785;28;20188;-48
2024/01/21 01:51:28;;;;;;;16.43;7.93;;;-2.90;99.90;;;;;;5267432;28;20635;-49
2024/01/21 01:53:59;;;;;;;13.97;8.07;;;-2.90;99.90;;;;;;5267144;28;20490;-47
2024/01/21 01:56:30;;;;;;;15.37;8.27;;;-3.00;99.90;;;;;;5271165;28;20238;-47
2024/01/21 01:59:03;;;;;;;14.00;8.70;;;-3.10;99.90;;;;;;5264358;28;20193;-47
2024/01/21 02:01:38;;;;;;;14.90;9.80;;;-3.10;99.90;;;;;;5266378;28;20218;-49
2024/01/21 02:04:11;;;;;;;14.53;8.50;;;-3.10;99.90;;;;;;5270367;28;20503;-48
2024/01/21 02:06:42;;;;;;;14.40;7.30;;;-3.20;99.90;;;;;;5265600;28;20444;-49
2024/01/21 02:09:13;;;;;;;15.43;8.37;;;-3.20;99.90;;;;;;5264634;28;20432;-47
2024/01/21 02:11:43;;;;;;;16.10;8.10;;;-3.20;99.90;;;;;;5265072;28;20246;-47
2024/01/21 02:14:14;;;;;;;12.00;6.67;;;-3.20;99.90;;;;;;5267667;28;20249;-47
2024/01/21 02:16:44;;;;;;;14.13;8.47;;;-3.10;99.90;;;;;;5269260;28;20270;-47
2024/01/21 02:19:30;;;;;;;9.27;6.77;;;-3.00;99.90;;;;;;5265302;28;20616;-47
2024/01/21 02:22:00;;;;;;;9.50;7.00;;;-3.00;99.90;;;;;;5261539;28;20175;-46
2024/01/21 02:24:32;;;;;;;14.43;6.53;;;-2.90;99.90;;;;;;5267750;28;20541;-47
2024/01/21 02:27:02;;;;;;;15.33;8.30;;;-2.80;99.90;;;;;;5265964;28;20184;-46
2024/01/21 02:29:33;;;;;;;13.50;8.60;;;-2.80;99.90;;;;;;5264318;28;20450;-47
2024/01/21 02:32:04;;;;;;;14.87;7.63;;;-3.00;99.90;;;;;;5265599;28;20181;-47
2024/01/21 02:34:35;;;;;;;14.50;7.40;;;-3.00;99.90;;;;;;5265013;28;20187;-48
2024/01/21 02:37:06;;;;;;;13.33;6.90;;;-3.00;99.90;;;;;;5261557;28;20430;-46
2024/01/21 02:39:36;;;;;;;9.47;7.03;;;-3.00;99.90;;;;;;5260158;28;20235;-48
2024/01/21 02:42:07;;;;;;;13.47;7.67;;;-2.80;99.90;;;;;;5266529;28;20189;-50
2024/01/21 02:44:37;;;;;;;13.03;7.10;;;-3.00;99.90;;;;;;5261054;28;20259;-52
2024/01/21 02:47:08;;;;;;;14.77;7.50;;;-3.00;99.90;;;;;;5261664;28;20189;-50
2024/01/21 02:49:39;;;;;;;6.57;5.67;;;-3.10;99.90;;;;;;5258892;28;20188;-46
2024/01/21 02:52:09;;;;;;;8.93;6.27;;;-3.10;99.90;;;;;;5265851;28;20642;-47
2024/01/21 02:54:40;;;;;;;8.77;7.43;;;-3.20;99.90;;;;;;5262050;28;20188;-48
2024/01/21 02:57:10;;;;;;;11.50;6.30;;;-3.00;99.90;;;;;;5261115;28;20694;-48
2024/01/21 02:59:41;;;;;;;11.60;6.40;;;-3.00;99.90;;;;;;5261065;28;20184;-48
2024/01/21 03:02:12;;;;;;;11.90;6.67;;;-3.10;99.90;;;;;;5263779;28;20196;-50
2024/01/21 03:04:42;;;;;;;9.63;6.57;;;-3.30;99.90;;;;;;5261495;28;20694;-50
2024/01/21 03:07:13;;;;;;;13.40;7.13;;;-3.20;99.90;;;;;;5263400;28;20188;-48
2024/01/21 03:09:44;;;;;;;9.47;6.70;;;-3.30;99.90;;;;;;5263146;28;20527;-46
2024/01/21 03:12:14;;;;;;;12.17;7.27;;;-3.30;99.90;;;;;;5267790;28;20494;-46
2024/01/21 03:14:45;;;;;;;13.43;7.10;;;-3.30;99.90;;;;;;5266143;28;20192;-47
2024/01/21 03:17:15;;;;;;;11.70;6.47;;;-3.40;99.90;;;;;;5265964;28;20218;-47
2024/01/21 03:19:46;;;;;;;8.93;6.00;;;-3.50;99.90;;;;;;5267560;28;20646;-50
2024/01/21 03:22:17;;;;;;;7.90;6.10;;;-3.40;99.90;;;;;;5269956;28;20185;-48
2024/01/21 03:24:47;;;;;;;13.50;7.30;;;-3.40;99.90;;;;;;5266702;28;20205;-48
2024/01/21 03:27:18;;;;;;;10.03;6.23;;;-3.50;99.90;;;;;;5266304;28;20516;-46
2024/01/21 03:29:49;;;;;;;13.03;6.97;;;-3.50;99.90;;;;;;5264330;28;20194;-46
2024/01/21 03:32:19;;;;;;;6.03;5.10;;;-3.30;99.90;;;;;;5261935;28;20176;-47
2024/01/21 03:34:51;;;;;;;9.80;5.83;;;-3.30;99.90;;;;;;5266850;28;20181;-50
2024/01/21 03:37:21;;;;;;;11.20;6.30;;;-3.40;99.90;;;;;;5279759;28;20184;-47
2024/01/21 03:39:52;;;;;;;9.73;6.10;;;-3.30;99.90;;;;;;5250830;28;20456;-48
2024/01/21 03:42:23;;;;;;;9.53;6.73;;;-3.30;99.90;;;;;;5266840;28;20184;-48
2024/01/21 03:44:53;;;;;;;9.70;5.57;;;-3.20;99.90;;;;;;5262175;28;20200;-51
2024/01/21 03:47:24;;;;;;;11.33;6.27;;;-3.20;99.90;;;;;;5265547;28;20192;-51
2024/01/21 03:49:54;;;;;;;16.53;6.90;;;-3.00;99.90;;;;;;5268849;28;20202;-49
2024/01/21 03:52:25;;;;;;;8.33;5.50;;;-3.00;99.90;;;;;;5267058;28;20246;-51
2024/01/21 03:54:56;;;;;;;9.77;5.90;;;-3.10;99.90;;;;;;5263703;28;20657;-46
2024/01/21 03:57:27;;;;;;;9.50;6.50;;;-3.10;99.90;;;;;;5262420;28;20193;-50
2024/01/21 03:59:57;;;;;;;12.37;6.80;;;-3.00;99.90;;;;;;5261312;28;20198;-47
2024/01/21 04:02:29;;;;;;;11.10;5.40;;;-3.00;99.90;;;;;;5260713;28;20461;-47
2024/01/21 04:05:00;;;;;;;14.73;5.67;;;-3.00;99.90;;;;;;5263715;28;20345;-49
2024/01/21 04:07:31;;;;;;;6.93;5.40;;;-2.80;99.90;;;;;;5261535;28;20484;-50
2024/01/21 04:10:03;;;;;;;6.33;5.27;;;-2.80;99.90;;;;;;5264485;28;20207;-49
2024/01/21 04:12:33;;;;;;;9.40;5.80;;;-2.80;99.90;;;;;;5265380;28;20789;-46
2024/01/21 04:15:04;;;;;;;7.33;5.50;;;-3.00;99.90;;;;;;5262254;28;20439;-50
2024/01/21 04:17:35;;;;;;;9.43;5.10;;;-3.00;99.90;;;;;;5263499;28;20187;-47
2024/01/21 04:20:07;;;;;;;9.73;5.40;;;-3.10;99.90;;;;;;5267969;28;20499;-48
2024/01/21 04:22:38;;;;;;;10.40;5.30;;;-3.10;99.90;;;;;;5261653;28;20180;-48
2024/01/21 04:25:09;;;;;;;7.77;4.97;;;-3.00;99.90;;;;;;5259345;28;20463;-47
2024/01/21 04:27:39;;;;;;;10.30;5.70;;;-3.00;99.90;;;;;;5265412;28;20181;-47
2024/01/21 04:30:10;;;;;;;5.67;5.17;;;-2.80;99.90;;;;;;5259216;28;20194;-47
2024/01/21 04:32:41;;;;;;;11.87;6.00;;;-2.80;99.90;;;;;;5262850;28;20182;-49
2024/01/21 04:35:11;;;;;;;9.00;6.23;;;-2.70;99.90;;;;;;5264363;28;20192;-49
2024/01/21 04:37:42;;;;;;;10.47;5.53;;;-2.70;99.90;;;;;;5269912;28;20188;-48
2024/01/21 04:40:13;;;;;;;10.10;5.80;;;-2.70;99.90;;;;;;5269405;28;20613;-49
2024/01/21 04:42:43;;;;;;;10.10;6.30;;;-2.60;99.90;;;;;;5267201;28;20185;-47
2024/01/21 04:45:16;;;;;;;9.83;6.00;;;-2.70;99.90;;;;;;5264366;28;20258;-48
2024/01/21 04:47:47;;;;;;;11.27;6.13;;;-2.80;99.90;;;;;;5259709;28;20193;-48
2024/01/21 04:50:17;;;;;;;8.43;5.57;;;-2.50;99.90;;;;;;5262317;28;20785;-49
2024/01/21 04:52:48;;;;;;;12.87;6.37;;;-2.40;99.90;;;;;;5268494;28;20169;-49
2024/01/21 04:55:18;;;;;;;8.43;5.33;;;-2.50;99.90;;;;;;5266171;28;20618;-49
2024/01/21 04:57:49;;;;;;;10.50;6.27;;;-2.60;99.90;;;;;;5260452;28;20193;-49
2024/01/21 05:00:20;;;;;;;10.13;6.07;;;-2.70;99.90;;;;;;5263693;28;20542;-49
2024/01/21 05:02:50;;;;;;;11.40;6.63;;;-2.70;99.90;;;;;;5262076;28;20190;-49
2024/01/21 05:05:21;;;;;;;8.87;5.90;;;-2.80;99.90;;;;;;5261996;28;20223;-48
2024/01/21 05:07:51;;;;;;;11.57;6.60;;;-2.80;99.90;;;;;;5266808;28;20196;-49
2024/01/21 05:10:24;;;;;;;12.47;6.30;;;-2.80;99.90;;;;;;5260320;28;20629;-48
2024/01/21 05:12:55;;;;;;;10.30;5.87;;;-2.60;99.90;;;;;;5264448;28;20684;-47
2024/01/21 05:15:25;;;;;;;14.47;7.30;;;-2.70;99.90;;;;;;5265152;28;20451;-48
2024/01/21 05:17:58;;;;;;;12.37;6.50;;;-2.30;99.90;;;;;;5260624;28;20699;-48
2024/01/21 05:20:29;;;;;;;9.43;6.13;;;-2.50;99.90;;;;;;5258313;28;20213;-49
2024/01/21 05:23:00;;;;;;;10.67;6.10;;;-2.60;99.90;;;;;;5268598;28;20434;-48
2024/01/21 05:25:30;;;;;;;8.27;5.40;;;-2.40;99.90;;;;;;5264496;28;20592;-49
2024/01/21 05:28:01;;;;;;;11.67;6.37;;;-2.30;99.90;;;;;;5262215;28;20285;-48
2024/01/21 05:30:32;;;;;;;12.93;5.63;;;-2.30;99.90;;;;;;5260225;28;20292;-46
2024/01/21 05:33:03;;;;;;;6.23;5.63;;;-2.40;99.90;;;;;;5259482;28;20187;-47
2024/01/21 05:35:33;;;;;;;6.53;5.80;;;-2.40;99.90;;;;;;5261820;28;20286;-48
2024/01/21 05:38:05;;;;;;;14.90;7.10;;;-2.60;99.90;;;;;;5265991;28;20185;-48
2024/01/21 05:40:35;;;;;;;9.87;6.70;;;-2.40;99.90;;;;;;5262958;28;20217;-48
2024/01/21 05:43:06;;;;;;;8.23;5.70;;;-2.40;99.90;;;;;;5262727;28;20440;-47
2024/01/21 05:45:37;;;;;;;6.63;4.90;;;-2.30;99.90;;;;;;5262422;28;20242;-49
2024/01/21 05:48:08;;;;;;;11.77;7.07;;;-2.30;99.90;;;;;;5261885;28;20196;-48
2024/01/21 05:50:38;;;;;;;5.67;5.07;;;-2.30;99.90;;;;;;5260951;28;20198;-46
2024/01/21 05:53:09;;;;;;;9.60;5.00;;;-2.30;99.90;;;;;;5264444;28;20540;-49
2024/01/21 05:55:39;;;;;;;9.23;5.63;;;-2.20;99.90;;;;;;5262645;28;20200;-47
2024/01/21 05:58:10;;;;;;;9.40;5.73;;;-2.30;99.90;;;;;;5262733;28;20194;-48
2024/01/21 06:00:40;;;;;;;9.63;6.37;;;-2.40;99.90;;;;;;5261788;28;20271;-48
2024/01/21 06:03:11;;;;;;;8.97;5.63;;;-2.40;99.90;;;;;;5263911;28;20181;-48
2024/01/21 06:05:42;;;;;;;10.43;5.60;;;-2.50;99.90;;;;;;5261545;28;20214;-50
2024/01/21 06:08:12;;;;;;;12.13;6.50;;;-2.20;99.90;;;;;;5260974;28;20201;-48
2024/01/21 06:10:43;;;;;;;10.53;5.57;;;-2.40;99.90;;;;;;5262371;28;20228;-48
2024/01/21 06:13:13;;;;;;;7.10;5.47;;;-2.40;99.90;;;;;;5263033;28;20184;-48
2024/01/21 06:15:45;;;;;;;7.23;5.13;;;-2.30;99.90;;;;;;5263511;28;20178;-47
2024/01/21 06:18:15;;;;;;;9.77;5.33;;;-2.40;99.90;;;;;;5264724;28;20196;-49
2024/01/21 06:20:46;;;;;;;6.17;4.90;;;-2.30;99.90;;;;;;5262200;28;20458;-51
2024/01/21 06:23:16;;;;;;;9.43;5.77;;;-2.20;99.90;;;;;;5267235;28;20216;-49
2024/01/21 06:25:47;;;;;;;8.83;5.67;;;-2.20;99.90;;;;;;5259050;28;20206;-48
2024/01/21 06:28:18;;;;;;;5.60;4.63;;;-2.20;99.90;;;;;;5259921;28;20673;-48
2024/01/21 06:30:48;;;;;;;11.20;6.40;;;-2.00;99.90;;;;;;5259773;28;20221;-48
2024/01/21 06:33:19;;;;;;;11.80;6.50;;;-1.90;99.90;;;;;;5261857;28;20197;-48
2024/01/21 06:35:50;;;;;;;13.10;6.23;;;-2.00;99.90;;;;;;5261297;28;20190;-47
2024/01/21 06:38:20;;;;;;;13.10;9.43;;;-1.90;99.90;;;;;;5264261;28;20479;-49
2024/01/21 06:40:52;;;;;;;10.10;6.00;;;-1.90;99.90;;;;;;5261568;28;20303;-48
2024/01/21 06:43:23;;;;;;;11.57;6.23;;;-2.00;99.90;;;;;;5261896;28;20189;-49
2024/01/21 06:45:54;;;;;;;8.60;6.00;;;-2.10;99.90;;;;;;5262274;28;20794;-47
2024/01/21 06:48:24;;;;;;;6.60;5.83;;;-2.20;99.90;;;;;;5258030;28;20428;-48
2024/01/21 06:50:56;;;;;;;10.43;5.33;;;-2.10;99.90;;;;;;5259104;28;20202;-48
2024/01/21 06:53:26;;;;;;;9.80;5.50;;;-2.10;99.90;;;;;;5264914;28;20239;-49
2024/01/21 06:55:57;;;;;;;7.83;5.63;;;-2.20;99.90;;;;;;5264349;28;20415;-49
2024/01/21 06:58:27;;;;;;;13.00;7.47;;;-2.20;99.90;;;;;;5260964;28;20243;-48
2024/01/21 07:00:58;;;;;;;12.30;6.93;;;-2.10;99.90;;;;;;5259671;28;20232;-48
2024/01/21 07:03:29;;;;;;;12.00;5.70;;;-2.00;99.90;;;;;;5258715;28;20668;-47
2024/01/21 07:05:59;;;;;;;23.70;10.53;;;-2.00;99.90;;;;;;5260452;28;20273;-47
2024/01/21 07:08:30;;;;;;;11.73;5.27;;;-1.80;99.90;;;;;;5258988;28;20255;-49
2024/01/21 07:11:06;;;;;;;5.77;4.67;;;-2.10;99.90;;;;;;5259178;28;21519;-50
2024/01/21 07:13:37;;;;;;;7.83;4.57;;;-2.10;99.90;;;;;;5260731;28;20189;-49
2024/01/21 07:16:08;;;;;;;9.90;5.83;;;-2.20;99.90;;;;;;5255719;28;20823;-49
2024/01/21 07:18:39;;;;;;;9.33;5.60;;;-2.20;99.90;;;;;;5260171;28;20439;-49
2024/01/21 07:21:10;;;;;;;6.20;4.83;;;-2.20;99.90;;;;;;5259829;28;20205;-48
2024/01/21 07:23:40;;;;;;;4.90;4.37;;;-2.20;99.90;;;;;;5264036;28;20576;-48
2024/01/21 07:26:11;;;;;;;8.40;5.00;;;-2.00;99.90;;;;;;5265944;28;20423;-48
2024/01/21 07:28:41;;;;;;;12.90;5.57;;;-2.10;99.90;;;;;;5258722;28;20186;-48
2024/01/21 07:31:12;;;;;;;7.37;4.67;;;-2.00;99.90;;;;;;5261778;28;20292;-49
2024/01/21 07:33:43;;;;;;;18.53;4.90;;;-2.00;99.90;;;;;;5260676;28;20188;-47
2024/01/21 07:36:13;;;;;;;6.83;5.20;;;-1.90;99.90;;;;;;5260372;28;20201;-49
2024/01/21 07:38:45;;;;;;;8.73;5.33;;;-1.70;99.90;;;;;;5258979;28;20281;-48
2024/01/21 07:41:15;;;;;;;5.93;5.43;;;-1.80;99.90;;;;;;5263916;28;20209;-47
2024/01/21 07:43:46;;;;;;;7.47;5.50;;;-1.70;99.90;;;;;;5259040;28;20459;-47
2024/01/21 07:46:16;;;;;;;9.00;5.90;;;-1.60;99.90;;;;;;5261404;28;20181;-48
2024/01/21 07:48:48;;;;;;;8.07;5.33;;;-1.60;99.90;;;;;;5259656;28;20677;-49
2024/01/21 07:51:19;;;;;;;7.47;5.30;;;-1.50;99.90;;;;;;5263925;28;20280;-49
2024/01/21 07:53:50;;;;;;;6.03;4.43;;;-1.70;99.90;;;;;;5262059;28;20451;-48
2024/01/21 07:56:22;;;;;;;7.70;4.73;;;-1.70;99.90;;;;;;5260448;28;21314;-47
2024/01/21 07:58:52;;;;;;;6.90;5.07;;;-1.70;99.90;;;;;;5261369;28;20433;-48
2024/01/21 08:01:24;;;;;;;9.10;5.43;;;-1.70;99.90;;;;;;5261180;28;20596;-49
2024/01/21 08:03:54;;;;;;;5.83;4.90;;;-1.60;99.90;;;;;;5261618;28;20451;-48
2024/01/21 08:06:25;;;;;;;10.93;5.60;;;-1.50;99.90;;;;;;5262869;28;20454;-50
2024/01/21 08:08:56;;;;;;;6.07;5.40;;;-1.40;99.90;;;;;;5258214;28;20182;-47
2024/01/21 08:11:27;;;;;;;8.00;5.53;;;-1.20;99.90;;;;;;5255597;28;20456;-48
2024/01/21 08:13:57;;;;;;;12.07;5.37;;;-1.20;99.90;;;;;;5259676;28;20322;-49
2024/01/21 08:16:28;;;;;;;5.33;4.20;;;-1.10;99.90;;;;;;5260952;28;20178;-48
2024/01/21 08:18:58;;;;;;;6.17;4.73;;;-1.00;99.70;;;;;;5267062;28;20655;-48
2024/01/21 08:21:29;;;;;;;11.97;5.50;;;-0.90;99.40;;;;;;5266606;28;20205;-48
2024/01/21 08:24:00;;;;;;;11.00;6.60;;;-0.70;98.80;;;;;;5256168;28;20205;-47
2024/01/21 08:26:31;;;;;;;5.83;5.17;;;-0.60;98.30;;;;;;5255085;28;21975;-48
2024/01/21 08:29:02;;;;;;;5.23;4.47;;;-0.50;97.90;;;;;;5258609;28;20190;-50
2024/01/21 08:31:32;;;;;;;5.57;4.53;;;-0.40;97.10;;;;;;5258358;28;20340;-49
2024/01/21 08:34:03;;;;;;;10.37;4.07;;;-0.40;96.40;;;;;;5251899;28;20434;-49
2024/01/21 08:36:34;;;;;;;7.07;4.23;;;-0.50;95.80;;;;;;5254997;28;20182;-49
2024/01/21 08:39:09;;;;;;;7.70;4.70;;;-0.50;95.10;;;;;;5253787;28;20237;-49
2024/01/21 08:41:39;;;;;;;4.17;3.83;;;-0.30;93.90;;;;;;5255537;28;20308;-49
2024/01/21 08:44:10;;;;;;;15.90;5.50;;;-0.30;93.40;;;;;;5253300;28;20542;-49
2024/01/21 08:46:41;;;;;;;6.77;4.60;;;-0.20;92.40;;;;;;5260519;28;20225;-49
2024/01/21 08:49:12;;;;;;;16.00;5.67;;;-0.20;92.60;;;;;;5258473;28;20177;-51
2024/01/21 08:51:43;;;;;;;11.07;5.03;;;-0.10;92.20;;;;;;5257785;28;20673;-48
2024/01/21 08:54:13;;;;;;;5.50;4.67;;;-0.10;91.60;;;;;;5263383;28;20439;-49
2024/01/21 08:56:44;;;;;;;4.27;3.90;;;-0.20;91.10;;;;;;5266003;28;20178;-49
2024/01/21 08:59:14;;;;;;;9.27;5.53;;;-0.10;90.20;;;;;;5261516;28;20182;-49
2024/01/21 09:01:45;;;;;;;13.03;5.10;;;-0.20;89.40;;;;;;5264939;28;21102;-49
2024/01/21 09:04:16;;;;;;;4.63;4.17;;;-0.10;87.00;;;;;;5265298;28;20291;-51
2024/01/21 09:06:46;;;;;;;11.07;5.90;;;0.00;86.50;;;;;;5260610;28;20559;-49
2024/01/21 09:09:17;;;;;;;6.90;4.27;;;0.10;84.50;;;;;;5262147;28;20186;-51
2024/01/21 09:11:47;;;;;;;7.27;4.27;;;0.20;82.80;;;;;;5258482;28;20201;-50
2024/01/21 09:14:18;;;;;;;17.63;6.60;;;0.20;81.90;;;;;;5260694;28;20569;-48
2024/01/21 09:16:49;;;;;;;7.43;5.00;;;0.20;80.00;;;;;;5261847;28;20193;-49
2024/01/21 09:19:20;;;;;;;12.00;4.33;;;0.20;79.60;;;;;;5260167;28;20240;-49
2024/01/21 09:21:50;;;;;;;5.90;3.80;;;0.20;79.10;;;;;;5257937;28;20200;-50
2024/01/21 09:24:21;;;;;;;11.10;5.80;;;0.20;78.20;;;;;;5263801;28;20205;-49
2024/01/21 09:26:52;;;;;;;13.40;6.50;;;0.50;76.40;;;;;;5260026;28;20170;-48
2024/01/21 09:29:22;;;;;;;35.03;17.30;;;0.70;72.70;;;;;;5259677;28;20208;-50
2024/01/21 09:31:57;;;;;;;22.70;10.43;;;0.80;72.00;;;;;;5265510;28;20601;-51
2024/01/21 09:34:27;;;;;;;36.50;16.23;;;0.80;71.20;;;;;;5261936;28;20182;-51
2024/01/21 09:36:58;;;;;;;24.67;11.03;;;0.80;70.30;;;;;;5258954;28;20806;-49
2024/01/21 09:39:29;;;;;;;26.23;12.47;;;0.80;67.50;;;;;;5258165;28;20174;-48
2024/01/21 09:42:00;;;;;;;8.43;4.37;;;0.90;67.60;;;;;;5263069;28;20449;-50
2024/01/21 09:44:30;;;;;;;7.83;5.43;;;1.00;64.50;;;;;;5260222;28;20193;-49
2024/01/21 09:47:02;;;;;;;17.07;9.10;;;0.90;63.50;;;;;;5260657;28;20196;-50
2024/01/21 09:49:33;;;;;;;13.47;5.97;;;0.90;64.50;;;;;;5264468;28;20193;-50
2024/01/21 09:52:05;;;;;;;4.20;3.27;;;0.90;64.40;;;;;;5264886;28;20798;-49
2024/01/21 09:54:36;;;;;;;6.50;2.60;;;0.80;63.90;;;;;;5263044;28;20439;-49
2024/01/21 09:57:10;;;;;;;2.37;2.27;;;0.60;63.50;;;;;;5263335;28;20451;-51
2024/01/21 09:59:40;;;;;;;2.73;2.50;;;0.60;63.40;;;;;;5260797;28;20689;-49
2024/01/21 10:02:16;;;;;;;6.33;4.33;;;0.60;62.50;;;;;;5264889;28;20528;-49
2024/01/21 10:04:46;;;;;;;3.37;3.10;;;0.80;63.80;;;;;;5262512;28;20800;-49
2024/01/21 10:07:17;;;;;;;6.90;2.23;;;0.80;62.50;;;;;;5261529;28;20469;-50
2024/01/21 10:09:55;;;;;;;3.27;2.80;;;1.00;62.20;;;;;;5256810;28;20193;-49
2024/01/21 10:12:25;;;;;;;7.33;3.17;;;0.90;62.50;;;;;;5255965;28;21018;-49
2024/01/21 10:14:56;;;;;;;10.10;3.53;;;0.90;61.90;;;;;;5260837;28;20466;-49
2024/01/21 10:17:26;;;;;;;5.40;3.67;;;0.90;61.50;;;;;;5258040;28;20260;-48
2024/01/21 10:19:58;;;;;;;9.23;3.63;;;0.90;60.90;;;;;;5262685;28;20217;-49
2024/01/21 10:22:28;;;;;;;5.40;3.70;;;1.10;60.50;;;;;;5262410;28;20181;-51
2024/01/21 10:25:01;;;;;;;6.87;2.77;;;1.00;59.60;;;;;;5261082;28;20464;-50
2024/01/21 10:27:32;;;;;;;5.13;3.13;;;0.90;60.30;;;;;;5257725;28;20174;-49
2024/01/21 10:30:03;;;;;;;9.87;3.10;;;0.90;60.00;;;;;;5262530;28;20486;-50
2024/01/21 10:32:34;;;;;;;4.00;3.10;;;1.00;59.60;;;;;;5261707;28;20265;-50
2024/01/21 10:35:06;;;;;;;3.50;2.27;;;0.90;60.20;;;;;;5251977;28;20445;-49
2024/01/21 10:37:41;;;;;;;2.17;2.07;;;0.90;60.20;;;;;;5260076;28;20444;-50
2024/01/21 10:40:12;;;;;;;4.73;2.80;;;1.00;60.60;;;;;;5263994;28;20459;-49
2024/01/21 10:42:44;;;;;;;3.10;2.77;;;1.20;59.80;;;;;;5265695;28;20444;-50
2024/01/21 10:45:16;;;;;;;2.30;2.10;;;1.20;59.60;;;;;;5262505;28;20461;-47
2024/01/21 10:47:47;;;;;;;12.50;3.40;;;1.10;60.70;;;;;;5260730;28;20485;-51
2024/01/21 10:50:19;;;;;;;3.87;3.13;;;1.40;60.00;;;;;;5261957;28;20487;-50
2024/01/21 10:52:50;;;;;;;2.73;2.53;;;1.30;59.60;;;;;;5266668;28;20439;-50
2024/01/21 10:55:21;;;;;;;5.67;3.37;;;1.20;59.40;;;;;;5263401;28;20439;-50
2024/01/21 10:57:52;;;;;;;9.90;3.87;;;1.20;59.80;;;;;;5265828;28;20258;-49
2024/01/21 11:00:23;;;;;;;5.03;3.10;;;1.40;59.10;;;;;;5268201;28;20451;-47
2024/01/21 11:03:31;;;;;;;3.87;3.30;;;1.60;58.90;;;;;;5265778;28;20249;-50
2024/01/21 11:06:07;;;;;;;5.53;2.80;;;1.70;57.90;;;;;;5262242;28;20193;-49
2024/01/21 11:08:43;;;;;;;7.77;3.50;;;1.70;57.30;;;;;;5268150;28;20428;-51
2024/01/21 11:11:15;;;;;;;3.93;3.40;;;1.90;56.50;;;;;;5261832;28;20789;-49
2024/01/21 11:13:47;;;;;;;9.00;3.80;;;2.00;56.60;;;;;;5263959;28;20444;-48
2024/01/21 11:16:28;;;;;;;5.90;3.40;;;1.90;55.90;;;;;;5265643;28;20874;-49
2024/01/21 11:19:02;;;;;;;6.73;4.20;;;1.80;56.20;;;;;;5256228;28;21690;-49
2024/01/21 11:21:40;;;;;;;4.13;3.17;;;1.80;56.00;;;;;;5261517;28;20460;-49
2024/01/21 11:24:13;;;;;;;9.23;3.87;;;1.80;56.40;;;;;;5262683;28;20824;-51
2024/01/21 11:26:47;;;;;;;5.87;3.97;;;1.90;56.20;;;;;;5265974;28;20424;-49
2024/01/21 11:29:29;;;;;;;3.90;3.27;;;2.00;56.10;;;;;;5264015;28;20432;-50
2024/01/21 11:32:02;;;;;;;5.30;3.37;;;1.90;56.60;;;;;;5258615;28;20435;-50
2024/01/21 11:34:38;;;;;;;3.50;3.20;;;1.90;55.80;;;;;;5263205;28;20436;-49
2024/01/21 11:37:10;;;;;;;4.87;3.80;;;1.80;55.40;;;;;;5264522;28;20431;-50
2024/01/21 11:39:43;;;;;;;3.80;3.50;;;1.90;55.50;;;;;;5263730;28;20428;-48
2024/01/21 11:42:14;;;;;;;5.20;4.60;;;2.00;55.10;;;;;;5260338;28;20746;-51
2024/01/21 11:44:44;;;;;;;5.83;3.50;;;2.10;55.40;;;;;;5263317;28;20455;-48
2024/01/21 11:47:15;;;;;;;6.20;4.00;;;2.10;54.50;;;;;;5260479;28;20185;-50
2024/01/21 11:49:46;;;;;;;4.60;3.27;;;2.20;53.80;;;;;;5270475;28;20192;-49
2024/01/21 11:52:17;;;;;;;13.33;3.10;;;2.30;53.30;;;;;;5263513;28;20923;-48
2024/01/21 11:54:48;;;;;;;3.73;2.60;;;2.20;53.50;;;;;;5267832;28;20196;-49
2024/01/21 11:57:19;;;;;;;13.40;6.27;;;2.20;53.50;;;;;;5265789;28;20514;-50
2024/01/21 11:59:50;;;;;;;7.33;4.93;;;2.40;53.10;;;;;;5260567;28;20198;-48
2024/01/21 12:02:20;;;;;;;2.73;2.53;;;2.60;51.90;;;;;;5266787;28;20461;-48
2024/01/21 12:04:54;;;;;;;8.63;4.17;;;2.50;51.00;;;;;;5264300;28;20284;-49
2024/01/21 12:07:25;;;;;;;7.33;3.90;;;2.60;50.90;;;;;;5260134;28;20273;-49
2024/01/21 12:09:57;;;;;;;4.47;2.43;;;2.60;50.30;;;;;;5265136;28;20464;-49
2024/01/21 12:12:27;;;;;;;7.90;4.50;;;2.60;50.10;;;;;;5263220;28;20420;-51
2024/01/21 12:14:58;;;;;;;6.23;3.90;;;2.70;50.40;;;;;;5268570;28;20506;-51
2024/01/21 12:17:29;;;;;;;2.60;2.40;;;2.80;49.20;;;;;;5262474;28;20629;-51
2024/01/21 12:20:00;;;;;;;6.87;5.03;;;2.80;48.80;;;;;;5261709;28;20511;-50
2024/01/21 12:22:39;;;;;;;6.20;3.17;;;2.80;48.80;;;;;;5263683;28;20185;-47
2024/01/21 12:25:11;;;;;;;3.80;3.50;;;2.80;49.10;;;;;;5264614;28;20674;-50
2024/01/21 12:27:45;;;;;;;12.17;5.17;;;2.90;49.10;;;;;;5267943;28;20543;-49
2024/01/21 12:30:16;;;;;;;5.60;4.03;;;2.90;49.40;;;;;;5264350;28;20499;-50
2024/01/21 12:32:47;;;;;;;3.57;3.10;;;3.00;49.40;;;;;;5264868;28;20436;-49
2024/01/21 12:35:18;;;;;;;18.43;2.90;;;2.90;48.20;;;;;;5259383;28;20791;-48
2024/01/21 12:37:49;;;;;;;6.67;2.60;;;2.90;48.40;;;;;;5263013;28;20427;-50
2024/01/21 12:40:20;;;;;;;3.17;2.43;;;3.00;48.50;;;;;;5259955;28;20613;-48
2024/01/21 12:42:50;;;;;;;7.97;2.67;;;3.00;48.50;;;;;;5259006;28;20182;-50
2024/01/21 12:45:22;;;;;;;4.00;2.87;;;3.00;48.30;;;;;;5263984;28;20206;-50
2024/01/21 12:47:52;;;;;;;2.83;2.53;;;3.00;48.50;;;;;;5263277;28;20177;-48
2024/01/21 12:50:23;;;;;;;6.17;3.40;;;3.00;49.00;;;;;;5264023;28;20813;-48
2024/01/21 12:52:55;;;;;;;3.43;3.10;;;3.00;49.20;;;;;;5263725;28;20289;-49
2024/01/21 12:55:26;;;;;;;13.50;3.00;;;3.00;49.30;;;;;;5261677;28;20443;-48
2024/01/21 12:57:57;;;;;;;3.53;2.90;;;3.10;49.10;;;;;;5263463;28;20448;-51
2024/01/21 13:00:27;;;;;;;5.60;3.10;;;3.20;48.90;;;;;;5265519;28;20270;-50
2024/01/21 13:02:58;;;;;;;6.07;2.70;;;3.20;48.70;;;;;;5268345;28;20276;-50
2024/01/21 13:05:28;;;;;;;3.90;3.43;;;3.20;48.10;;;;;;5270279;28;20204;-48